sensor_id;sensor_type;location;lat;lon;timestamp;temperature;humidity
5429;DHT22;2737;52.386;9.980;2022-10-31T00:00:07;14.20;99.90
5429;DHT22;2737;52.386;9.980;2022-10-31T00:02:34;14.20;99.90
5429;DHT22;2737;52.386;9.980;2022-10-31T00:05:02;14.10;99.90
5429;DHT22;2737;52.386;9.980;2022-10-31T00:07:30;14.10;99.90
5429;DHT22;2737;52.386;9.980;2022-10-31T00:09:57;14.00;99.90
5429;DHT22;2737;52.386;9.980;2022-10-31T00:12:25;13.90;99.90
5429;DHT22;2737;52.386;9.980;2022-10-31T00:14:52;13.90;99.90
5429;DHT22;2737;52.386;9.980;2022-10-31T00:17:19;13.80;99.90
5429;DHT22;2737;52.386;9.980;2022-10-31T00:19:46;13.80;99.90
5429;DHT22;2737;52.386;9.980;2022-10-31T00:22:13;13.80;99.90
5429;DHT22;2737;52.386;9.980;2022-10-31T00:24:41;13.70;99.90
5429;DHT22;2737;52.386;9.980;2022-10-31T00:27:08;13.70;99.90
5429;DHT22;2737;52.386;9.980;2022-10-31T00:29:35;13.70;99.90
5429;DHT22;2737;52.386;9.980;2022-10-31T00:32:03;13.70;99.90
5429;DHT22;2737;52.386;9.980;2022-10-31T00:34:30;13.60;99.90
5429;DHT22;2737;52.386;9.980;2022-10-31T00:36:57;13.60;99.90
5429;DHT22;2737;52.386;9.980;2022-10-31T00:39:24;13.50;99.90
5429;DHT22;2737;52.386;9.980;2022-10-31T00:41:52;13.40;99.90
5429;DHT22;2737;52.386;9.980;2022-10-31T00:44:19;13.40;99.90
5429;DHT22;2737;52.386;9.980;2022-10-31T00:46:46;13.30;99.90
5429;DHT22;2737;52.386;9.980;2022-10-31T00:49:13;13.30;99.90
5429;DHT22;2737;52.386;9.980;2022-10-31T00:51:40;13.30;99.90
5429;DHT22;2737;52.386;9.980;2022-10-31T00:54:07;13.30;99.90
5429;DHT22;2737;52.386;9.980;2022-10-31T00:56:35;13.30;99.90
5429;DHT22;2737;52.386;9.980;2022-10-31T00:59:03;13.20;99.90
5429;DHT22;2737;52.386;9.980;2022-10-31T01:01:30;13.20;99.90
5429;DHT22;2737;52.386;9.980;2022-10-31T01:03:57;13.20;99.90
5429;DHT22;2737;52.386;9.980;2022-10-31T01:06:24;13.30;99.90
5429;DHT22;2737;52.386;9.980;2022-10-31T01:08:51;13.30;99.90
5429;DHT22;2737;52.386;9.980;2022-10-31T01:11:20;13.40;99.90
5429;DHT22;2737;52.386;9.980;2022-10-31T01:13:50;13.50;99.90
5429;DHT22;2737;52.386;9.980;2022-10-31T01:16:20;13.40;99.90
5429;DHT22;2737;52.386;9.980;2022-10-31T01:18:47;13.50;99.90
5429;DHT22;2737;52.386;9.980;2022-10-31T01:21:16;13.50;99.90
5429;DHT22;2737;52.386;9.980;2022-10-31T01:23:43;13.50;99.90
5429;DHT22;2737;52.386;9.980;2022-10-31T01:26:12;13.60;99.90
5429;DHT22;2737;52.386;9.980;2022-10-31T01:28:47;13.70;99.90
5429;DHT22;2737;52.386;9.980;2022-10-31T01:31:16;13.60;99.90
5429;DHT22;2737;52.386;9.980;2022-10-31T01:33:44;13.70;99.90
5429;DHT22;2737;52.386;9.980;2022-10-31T01:36:14;13.70;99.90
5429;DHT22;2737;52.386;9.980;2022-10-31T01:38:42;13.70;99.90
5429;DHT22;2737;52.386;9.980;2022-10-31T01:41:10;13.80;99.90
5429;DHT22;2737;52.386;9.980;2022-10-31T01:43:47;13.80;99.90
5429;DHT22;2737;52.386;9.980;2022-10-31T01:46:16;13.80;99.90
5429;DHT22;2737;52.386;9.980;2022-10-31T01:48:45;13.80;99.90
5429;DHT22;2737;52.386;9.980;2022-10-31T01:51:15;13.80;99.90
5429;DHT22;2737;52.386;9.980;2022-10-31T01:53:45;13.80;99.90
5429;DHT22;2737;52.386;9.980;2022-10-31T01:56:13;13.80;99.90
5429;DHT22;2737;52.386;9.980;2022-10-31T01:58:40;13.80;99.90
5429;DHT22;2737;52.386;9.980;2022-10-31T02:01:08;13.80;99.90
5429;DHT22;2737;52.386;9.980;2022-10-31T02:03:35;13.80;99.90
5429;DHT22;2737;52.386;9.980;2022-10-31T02:06:07;13.80;99.90
5429;DHT22;2737;52.386;9.980;2022-10-31T02:08:37;13.70;99.90
5429;DHT22;2737;52.386;9.980;2022-10-31T02:11:06;13.70;99.90
5429;DHT22;2737;52.386;9.980;2022-10-31T02:13:35;13.70;99.90
5429;DHT22;2737;52.386;9.980;2022-10-31T02:16:02;13.70;99.90
5429;DHT22;2737;52.386;9.980;2022-10-31T02:18:30;13.60;99.90
5429;DHT22;2737;52.386;9.980;2022-10-31T02:21:10;13.60;99.90
5429;DHT22;2737;52.386;9.980;2022-10-31T02:24:02;13.60;99.90
5429;DHT22;2737;52.386;9.980;2022-10-31T02:30:00;13.70;99.90
5429;DHT22;2737;52.386;9.980;2022-10-31T02:32:43;13.60;99.90
5429;DHT22;2737;52.386;9.980;2022-10-31T02:35:20;13.60;99.90
5429;DHT22;2737;52.386;9.980;2022-10-31T02:37:57;13.50;99.90
5429;DHT22;2737;52.386;9.980;2022-10-31T02:40:27;13.50;99.90
5429;DHT22;2737;52.386;9.980;2022-10-31T02:43:03;13.60;99.90
5429;DHT22;2737;52.386;9.980;2022-10-31T02:45:37;13.50;99.90
5429;DHT22;2737;52.386;9.980;2022-10-31T02:48:10;13.40;99.90
5429;DHT22;2737;52.386;9.980;2022-10-31T02:50:41;13.50;99.90
5429;DHT22;2737;52.386;9.980;2022-10-31T02:53:09;13.40;99.90
5429;DHT22;2737;52.386;9.980;2022-10-31T02:55:56;13.40;99.90
5429;DHT22;2737;52.386;9.980;2022-10-31T02:58:26;13.40;99.90
5429;DHT22;2737;52.386;9.980;2022-10-31T03:01:25;13.40;99.90
5429;DHT22;2737;52.386;9.980;2022-10-31T03:06:54;13.30;99.90
5429;DHT22;2737;52.386;9.980;2022-10-31T03:09:25;13.20;99.90
5429;DHT22;2737;52.386;9.980;2022-10-31T03:11:58;13.20;99.90
5429;DHT22;2737;52.386;9.980;2022-10-31T03:14:31;13.20;99.90
5429;DHT22;2737;52.386;9.980;2022-10-31T03:17:04;13.20;99.90
5429;DHT22;2737;52.386;9.980;2022-10-31T03:19:40;13.20;99.90
5429;DHT22;2737;52.386;9.980;2022-10-31T03:22:12;13.20;99.90
5429;DHT22;2737;52.386;9.980;2022-10-31T03:24:43;13.10;99.90
5429;DHT22;2737;52.386;9.980;2022-10-31T03:27:13;13.10;99.90
5429;DHT22;2737;52.386;9.980;2022-10-31T03:29:44;13.00;99.90
5429;DHT22;2737;52.386;9.980;2022-10-31T03:32:15;13.00;99.90
5429;DHT22;2737;52.386;9.980;2022-10-31T03:34:46;13.00;99.90
5429;DHT22;2737;52.386;9.980;2022-10-31T03:37:17;13.00;99.90
5429;DHT22;2737;52.386;9.980;2022-10-31T03:39:47;13.00;99.90
5429;DHT22;2737;52.386;9.980;2022-10-31T03:42:17;13.00;99.90
5429;DHT22;2737;52.386;9.980;2022-10-31T03:44:51;13.00;99.90
5429;DHT22;2737;52.386;9.980;2022-10-31T03:47:20;12.90;99.90
5429;DHT22;2737;52.386;9.980;2022-10-31T03:49:48;12.90;99.90
5429;DHT22;2737;52.386;9.980;2022-10-31T03:52:22;12.90;99.90
5429;DHT22;2737;52.386;9.980;2022-10-31T03:54:54;12.80;99.90
5429;DHT22;2737;52.386;9.980;2022-10-31T03:57:27;12.80;99.90
5429;DHT22;2737;52.386;9.980;2022-10-31T03:59:59;12.70;99.90
5429;DHT22;2737;52.386;9.980;2022-10-31T04:02:30;12.70;99.90
5429;DHT22;2737;52.386;9.980;2022-10-31T04:05:00;12.60;99.90
5429;DHT22;2737;52.386;9.980;2022-10-31T04:07:31;12.50;99.90
5429;DHT22;2737;52.386;9.980;2022-10-31T04:10:02;12.50;99.90
5429;DHT22;2737;52.386;9.980;2022-10-31T04:12:31;12.40;99.90
5429;DHT22;2737;52.386;9.980;2022-10-31T04:14:59;12.40;99.90
5429;DHT22;2737;52.386;9.980;2022-10-31T04:17:32;12.40;99.90
5429;DHT22;2737;52.386;9.980;2022-10-31T04:20:03;12.40;99.90
5429;DHT22;2737;52.386;9.980;2022-10-31T04:22:30;12.20;99.90
5429;DHT22;2737;52.386;9.980;2022-10-31T04:24:57;12.20;99.90
5429;DHT22;2737;52.386;9.980;2022-10-31T04:27:25;12.20;99.90
5429;DHT22;2737;52.386;9.980;2022-10-31T04:29:52;12.20;99.90
5429;DHT22;2737;52.386;9.980;2022-10-31T04:32:19;12.20;99.90
5429;DHT22;2737;52.386;9.980;2022-10-31T04:34:46;12.10;99.90
5429;DHT22;2737;52.386;9.980;2022-10-31T04:37:15;12.00;99.90
5429;DHT22;2737;52.386;9.980;2022-10-31T04:39:42;12.00;99.90
5429;DHT22;2737;52.386;9.980;2022-10-31T04:42:09;12.00;99.90
5429;DHT22;2737;52.386;9.980;2022-10-31T04:44:36;11.90;99.90
5429;DHT22;2737;52.386;9.980;2022-10-31T04:47:03;11.80;99.90
5429;DHT22;2737;52.386;9.980;2022-10-31T04:49:30;11.90;99.90
5429;DHT22;2737;52.386;9.980;2022-10-31T04:51:57;11.90;99.90
5429;DHT22;2737;52.386;9.980;2022-10-31T04:54:25;11.90;99.90
5429;DHT22;2737;52.386;9.980;2022-10-31T04:56:52;11.90;99.90
5429;DHT22;2737;52.386;9.980;2022-10-31T04:59:19;11.90;99.90
5429;DHT22;2737;52.386;9.980;2022-10-31T05:01:46;11.90;99.90
5429;DHT22;2737;52.386;9.980;2022-10-31T05:04:13;11.90;99.90
5429;DHT22;2737;52.386;9.980;2022-10-31T05:06:40;11.90;99.90
5429;DHT22;2737;52.386;9.980;2022-10-31T05:09:07;11.80;99.90
5429;DHT22;2737;52.386;9.980;2022-10-31T05:11:36;11.80;99.90
5429;DHT22;2737;52.386;9.980;2022-10-31T05:14:03;11.80;99.90
5429;DHT22;2737;52.386;9.980;2022-10-31T05:16:30;11.80;99.90
5429;DHT22;2737;52.386;9.980;2022-10-31T05:18:57;11.80;99.90
5429;DHT22;2737;52.386;9.980;2022-10-31T05:21:24;11.80;99.90
5429;DHT22;2737;52.386;9.980;2022-10-31T05:23:51;11.70;99.90
5429;DHT22;2737;52.386;9.980;2022-10-31T05:26:18;11.70;99.90
5429;DHT22;2737;52.386;9.980;2022-10-31T05:28:47;11.70;99.90
5429;DHT22;2737;52.386;9.980;2022-10-31T05:31:14;11.60;99.90
5429;DHT22;2737;52.386;9.980;2022-10-31T05:33:41;11.40;99.90
5429;DHT22;2737;52.386;9.980;2022-10-31T05:36:08;11.30;99.90
5429;DHT22;2737;52.386;9.980;2022-10-31T05:38:35;11.30;99.90
5429;DHT22;2737;52.386;9.980;2022-10-31T05:41:02;11.30;99.90
5429;DHT22;2737;52.386;9.980;2022-10-31T05:43:29;11.30;99.90
5429;DHT22;2737;52.386;9.980;2022-10-31T05:46:01;11.30;99.90
5429;DHT22;2737;52.386;9.980;2022-10-31T05:48:28;11.30;99.90
5429;DHT22;2737;52.386;9.980;2022-10-31T05:50:55;11.30;99.90
5429;DHT22;2737;52.386;9.980;2022-10-31T05:53:22;11.30;99.90
5429;DHT22;2737;52.386;9.980;2022-10-31T05:55:49;11.20;99.90
5429;DHT22;2737;52.386;9.980;2022-10-31T05:58:16;11.20;99.90
5429;DHT22;2737;52.386;9.980;2022-10-31T06:00:43;11.20;99.90
5429;DHT22;2737;52.386;9.980;2022-10-31T06:03:11;11.20;99.90
5429;DHT22;2737;52.386;9.980;2022-10-31T06:05:38;11.20;99.90
5429;DHT22;2737;52.386;9.980;2022-10-31T06:08:05;11.20;99.90
5429;DHT22;2737;52.386;9.980;2022-10-31T06:10:32;11.20;99.90
5429;DHT22;2737;52.386;9.980;2022-10-31T06:12:59;11.20;99.90
5429;DHT22;2737;52.386;9.980;2022-10-31T06:15:26;11.20;99.90
5429;DHT22;2737;52.386;9.980;2022-10-31T06:18:01;11.10;99.90
5429;DHT22;2737;52.386;9.980;2022-10-31T06:20:30;11.10;99.90
5429;DHT22;2737;52.386;9.980;2022-10-31T06:22:58;11.10;99.90
5429;DHT22;2737;52.386;9.980;2022-10-31T06:25:25;11.00;99.90
5429;DHT22;2737;52.386;9.980;2022-10-31T06:27:52;11.00;99.90
5429;DHT22;2737;52.386;9.980;2022-10-31T06:30:19;11.00;99.90
5429;DHT22;2737;52.386;9.980;2022-10-31T06:32:46;10.90;99.90
5429;DHT22;2737;52.386;9.980;2022-10-31T06:35:13;10.90;99.90
5429;DHT22;2737;52.386;9.980;2022-10-31T06:37:41;10.80;99.90
5429;DHT22;2737;52.386;9.980;2022-10-31T06:40:10;10.80;99.90
5429;DHT22;2737;52.386;9.980;2022-10-31T06:42:37;10.80;99.90
5429;DHT22;2737;52.386;9.980;2022-10-31T06:45:04;10.80;99.90
5429;DHT22;2737;52.386;9.980;2022-10-31T06:47:31;10.90;99.90
5429;DHT22;2737;52.386;9.980;2022-10-31T06:49:58;10.90;99.90
5429;DHT22;2737;52.386;9.980;2022-10-31T06:52:25;11.00;99.90
5429;DHT22;2737;52.386;9.980;2022-10-31T06:54:54;11.00;99.90
5429;DHT22;2737;52.386;9.980;2022-10-31T06:57:21;11.00;99.90
5429;DHT22;2737;52.386;9.980;2022-10-31T06:59:48;11.00;99.90
5429;DHT22;2737;52.386;9.980;2022-10-31T07:02:15;11.00;99.90
5429;DHT22;2737;52.386;9.980;2022-10-31T07:04:42;11.00;99.90
5429;DHT22;2737;52.386;9.980;2022-10-31T07:07:09;11.00;99.90
5429;DHT22;2737;52.386;9.980;2022-10-31T07:09:36;11.10;99.90
5429;DHT22;2737;52.386;9.980;2022-10-31T07:12:05;11.20;99.90
5429;DHT22;2737;52.386;9.980;2022-10-31T07:14:32;11.20;99.90
5429;DHT22;2737;52.386;9.980;2022-10-31T07:16:59;11.20;99.90
5429;DHT22;2737;52.386;9.980;2022-10-31T07:19:26;11.30;99.90
5429;DHT22;2737;52.386;9.980;2022-10-31T07:21:53;11.30;99.90
5429;DHT22;2737;52.386;9.980;2022-10-31T07:24:20;11.40;99.90
5429;DHT22;2737;52.386;9.980;2022-10-31T07:26:47;11.40;99.90
5429;DHT22;2737;52.386;9.980;2022-10-31T07:29:16;11.40;99.90
5429;DHT22;2737;52.386;9.980;2022-10-31T07:31:44;11.40;99.90
5429;DHT22;2737;52.386;9.980;2022-10-31T07:34:12;11.40;99.90
5429;DHT22;2737;52.386;9.980;2022-10-31T07:36:39;11.40;99.90
5429;DHT22;2737;52.386;9.980;2022-10-31T07:39:06;11.50;99.90
5429;DHT22;2737;52.386;9.980;2022-10-31T07:41:33;11.50;99.90
5429;DHT22;2737;52.386;9.980;2022-10-31T07:44:00;11.60;99.90
5429;DHT22;2737;52.386;9.980;2022-10-31T07:46:28;11.60;99.90
5429;DHT22;2737;52.386;9.980;2022-10-31T07:48:55;11.70;99.90
5429;DHT22;2737;52.386;9.980;2022-10-31T07:51:22;11.70;99.90
5429;DHT22;2737;52.386;9.980;2022-10-31T07:53:50;11.70;99.90
5429;DHT22;2737;52.386;9.980;2022-10-31T07:56:17;11.80;99.90
5429;DHT22;2737;52.386;9.980;2022-10-31T07:58:44;11.70;99.90
5429;DHT22;2737;52.386;9.980;2022-10-31T08:01:11;11.80;99.90
5429;DHT22;2737;52.386;9.980;2022-10-31T08:03:39;11.80;99.90
5429;DHT22;2737;52.386;9.980;2022-10-31T08:06:06;11.80;99.90
5429;DHT22;2737;52.386;9.980;2022-10-31T08:08:33;11.90;99.90
5429;DHT22;2737;52.386;9.980;2022-10-31T08:11:00;11.90;99.90
5429;DHT22;2737;52.386;9.980;2022-10-31T08:13:27;11.90;99.90
5429;DHT22;2737;52.386;9.980;2022-10-31T08:15:54;12.00;99.90
5429;DHT22;2737;52.386;9.980;2022-10-31T08:18:21;12.00;99.90
5429;DHT22;2737;52.386;9.980;2022-10-31T08:20:50;12.00;99.90
5429;DHT22;2737;52.386;9.980;2022-10-31T08:23:17;12.10;99.90
5429;DHT22;2737;52.386;9.980;2022-10-31T08:25:44;12.20;99.90
5429;DHT22;2737;52.386;9.980;2022-10-31T08:28:13;12.30;99.90
5429;DHT22;2737;52.386;9.980;2022-10-31T08:30:41;12.30;99.90
5429;DHT22;2737;52.386;9.980;2022-10-31T08:33:11;12.40;99.90
5429;DHT22;2737;52.386;9.980;2022-10-31T08:35:38;12.50;99.90
5429;DHT22;2737;52.386;9.980;2022-10-31T08:38:08;12.60;99.90
5429;DHT22;2737;52.386;9.980;2022-10-31T08:40:35;12.60;99.90
5429;DHT22;2737;52.386;9.980;2022-10-31T08:43:04;12.70;99.90
5429;DHT22;2737;52.386;9.980;2022-10-31T08:45:33;12.70;99.90
5429;DHT22;2737;52.386;9.980;2022-10-31T08:48:01;12.80;99.90
5429;DHT22;2737;52.386;9.980;2022-10-31T08:50:31;12.80;99.90
5429;DHT22;2737;52.386;9.980;2022-10-31T08:53:01;12.90;99.90
5429;DHT22;2737;52.386;9.980;2022-10-31T08:55:30;12.90;99.90
5429;DHT22;2737;52.386;9.980;2022-10-31T08:57:57;12.90;99.90
5429;DHT22;2737;52.386;9.980;2022-10-31T09:00:25;13.00;99.90
5429;DHT22;2737;52.386;9.980;2022-10-31T09:02:56;13.10;99.90
5429;DHT22;2737;52.386;9.980;2022-10-31T09:05:23;13.20;99.90
5429;DHT22;2737;52.386;9.980;2022-10-31T09:07:50;13.20;99.90
5429;DHT22;2737;52.386;9.980;2022-10-31T09:10:17;13.30;99.90
5429;DHT22;2737;52.386;9.980;2022-10-31T09:12:46;13.40;99.90
5429;DHT22;2737;52.386;9.980;2022-10-31T09:15:13;13.40;99.90
5429;DHT22;2737;52.386;9.980;2022-10-31T09:17:46;13.50;99.90
5429;DHT22;2737;52.386;9.980;2022-10-31T09:20:13;13.60;99.90
5429;DHT22;2737;52.386;9.980;2022-10-31T09:22:40;13.70;99.90
5429;DHT22;2737;52.386;9.980;2022-10-31T09:25:08;13.80;99.90
5429;DHT22;2737;52.386;9.980;2022-10-31T09:27:35;13.80;99.90
5429;DHT22;2737;52.386;9.980;2022-10-31T09:30:04;13.90;99.90
5429;DHT22;2737;52.386;9.980;2022-10-31T09:32:32;14.00;99.90
5429;DHT22;2737;52.386;9.980;2022-10-31T09:34:59;14.00;99.90
5429;DHT22;2737;52.386;9.980;2022-10-31T09:37:26;14.10;99.90
5429;DHT22;2737;52.386;9.980;2022-10-31T09:39:53;14.20;99.90
5429;DHT22;2737;52.386;9.980;2022-10-31T09:42:41;14.20;99.90
5429;DHT22;2737;52.386;9.980;2022-10-31T09:45:16;14.30;99.90
5429;DHT22;2737;52.386;9.980;2022-10-31T09:47:54;14.40;99.90
5429;DHT22;2737;52.386;9.980;2022-10-31T09:50:28;14.40;99.90
5429;DHT22;2737;52.386;9.980;2022-10-31T09:53:02;14.50;99.90
5429;DHT22;2737;52.386;9.980;2022-10-31T09:55:35;14.60;99.90
5429;DHT22;2737;52.386;9.980;2022-10-31T09:58:04;14.60;99.90
5429;DHT22;2737;52.386;9.980;2022-10-31T10:00:33;14.60;99.90
5429;DHT22;2737;52.386;9.980;2022-10-31T10:03:06;14.60;99.90
5429;DHT22;2737;52.386;9.980;2022-10-31T10:05:39;14.70;99.90
5429;DHT22;2737;52.386;9.980;2022-10-31T10:08:10;14.80;99.90
5429;DHT22;2737;52.386;9.980;2022-10-31T10:10:45;14.80;99.90
5429;DHT22;2737;52.386;9.980;2022-10-31T10:13:33;14.90;99.90
5429;DHT22;2737;52.386;9.980;2022-10-31T10:16:17;15.00;99.90
5429;DHT22;2737;52.386;9.980;2022-10-31T10:19:00;15.00;99.90
5429;DHT22;2737;52.386;9.980;2022-10-31T10:21:39;15.00;99.90
5429;DHT22;2737;52.386;9.980;2022-10-31T10:24:21;15.10;99.90
5429;DHT22;2737;52.386;9.980;2022-10-31T10:26:54;15.10;99.90
5429;DHT22;2737;52.386;9.980;2022-10-31T10:29:31;15.10;99.90
5429;DHT22;2737;52.386;9.980;2022-10-31T10:32:08;15.20;99.90
5429;DHT22;2737;52.386;9.980;2022-10-31T10:34:41;15.30;99.90
5429;DHT22;2737;52.386;9.980;2022-10-31T10:37:17;15.40;99.90
5429;DHT22;2737;52.386;9.980;2022-10-31T10:39:49;15.40;99.90
5429;DHT22;2737;52.386;9.980;2022-10-31T10:42:17;15.50;99.90
5429;DHT22;2737;52.386;9.980;2022-10-31T10:45:14;15.50;99.90
5429;DHT22;2737;52.386;9.980;2022-10-31T10:48:06;15.60;99.90
5429;DHT22;2737;52.386;9.980;2022-10-31T10:50:38;15.60;99.90
5429;DHT22;2737;52.386;9.980;2022-10-31T10:56:03;15.70;99.90
5429;DHT22;2737;52.386;9.980;2022-10-31T10:58:34;15.80;99.90
5429;DHT22;2737;52.386;9.980;2022-10-31T11:01:10;15.90;99.90
5429;DHT22;2737;52.386;9.980;2022-10-31T11:03:40;15.90;99.90
5429;DHT22;2737;52.386;9.980;2022-10-31T11:06:17;15.90;99.90
5429;DHT22;2737;52.386;9.980;2022-10-31T11:08:47;15.90;99.90
5429;DHT22;2737;52.386;9.980;2022-10-31T11:11:23;16.00;99.90
5429;DHT22;2737;52.386;9.980;2022-10-31T11:13:57;16.00;99.90
5429;DHT22;2737;52.386;9.980;2022-10-31T11:16:30;16.10;99.90
5429;DHT22;2737;52.386;9.980;2022-10-31T11:19:17;16.10;99.90
5429;DHT22;2737;52.386;9.980;2022-10-31T11:21:46;16.20;99.90
5429;DHT22;2737;52.386;9.980;2022-10-31T11:24:16;16.20;99.90
5429;DHT22;2737;52.386;9.980;2022-10-31T11:26:45;16.20;99.90
5429;DHT22;2737;52.386;9.980;2022-10-31T11:29:15;16.30;99.90
5429;DHT22;2737;52.386;9.980;2022-10-31T11:31:45;16.30;99.90
5429;DHT22;2737;52.386;9.980;2022-10-31T11:34:26;16.40;99.90
5429;DHT22;2737;52.386;9.980;2022-10-31T11:36:59;16.40;99.90
5429;DHT22;2737;52.386;9.980;2022-10-31T11:39:28;16.40;99.90
5429;DHT22;2737;52.386;9.980;2022-10-31T11:41:59;16.40;99.90
5429;DHT22;2737;52.386;9.980;2022-10-31T11:44:28;16.40;99.90
5429;DHT22;2737;52.386;9.980;2022-10-31T11:46:58;16.50;99.90
5429;DHT22;2737;52.386;9.980;2022-10-31T11:49:32;16.60;99.90
5429;DHT22;2737;52.386;9.980;2022-10-31T11:52:06;16.50;99.90
5429;DHT22;2737;52.386;9.980;2022-10-31T11:54:46;16.50;99.90
5429;DHT22;2737;52.386;9.980;2022-10-31T11:57:25;16.50;99.90
5429;DHT22;2737;52.386;9.980;2022-10-31T11:59:53;16.50;99.90
5429;DHT22;2737;52.386;9.980;2022-10-31T12:02:22;16.50;99.90
5429;DHT22;2737;52.386;9.980;2022-10-31T12:04:54;16.60;99.90
5429;DHT22;2737;52.386;9.980;2022-10-31T12:07:22;16.60;99.90
5429;DHT22;2737;52.386;9.980;2022-10-31T12:09:50;16.50;99.90
5429;DHT22;2737;52.386;9.980;2022-10-31T12:12:36;16.60;99.90
5429;DHT22;2737;52.386;9.980;2022-10-31T12:15:23;16.60;99.90
5429;DHT22;2737;52.386;9.980;2022-10-31T12:17:56;16.60;99.90
5429;DHT22;2737;52.386;9.980;2022-10-31T12:20:35;16.60;99.90
5429;DHT22;2737;52.386;9.980;2022-10-31T12:23:15;16.60;99.90
5429;DHT22;2737;52.386;9.980;2022-10-31T12:25:48;16.50;99.90
5429;DHT22;2737;52.386;9.980;2022-10-31T12:28:53;16.50;99.90
5429;DHT22;2737;52.386;9.980;2022-10-31T12:31:43;16.50;99.90
5429;DHT22;2737;52.386;9.980;2022-10-31T12:37:30;16.50;99.90
5429;DHT22;2737;52.386;9.980;2022-10-31T12:40:11;16.50;99.90
5429;DHT22;2737;52.386;9.980;2022-10-31T12:42:52;16.60;99.90
5429;DHT22;2737;52.386;9.980;2022-10-31T12:45:41;16.60;99.90
5429;DHT22;2737;52.386;9.980;2022-10-31T12:48:40;16.60;99.90
5429;DHT22;2737;52.386;9.980;2022-10-31T12:51:15;16.60;99.90
5429;DHT22;2737;52.386;9.980;2022-10-31T12:53:55;16.60;99.90
5429;DHT22;2737;52.386;9.980;2022-10-31T12:56:36;16.60;99.90
5429;DHT22;2737;52.386;9.980;2022-10-31T12:59:10;16.50;99.90
5429;DHT22;2737;52.386;9.980;2022-10-31T13:01:45;16.60;99.90
5429;DHT22;2737;52.386;9.980;2022-10-31T13:04:18;16.60;99.90
5429;DHT22;2737;52.386;9.980;2022-10-31T13:06:50;16.60;99.90
5429;DHT22;2737;52.386;9.980;2022-10-31T13:09:21;16.60;99.90
5429;DHT22;2737;52.386;9.980;2022-10-31T13:11:55;16.60;99.90
5429;DHT22;2737;52.386;9.980;2022-10-31T13:14:26;16.50;99.90
5429;DHT22;2737;52.386;9.980;2022-10-31T13:16:55;16.50;99.90
5429;DHT22;2737;52.386;9.980;2022-10-31T13:19:25;16.50;99.90
5429;DHT22;2737;52.386;9.980;2022-10-31T13:21:57;16.50;99.90
5429;DHT22;2737;52.386;9.980;2022-10-31T13:24:33;16.40;99.90
5429;DHT22;2737;52.386;9.980;2022-10-31T13:27:03;16.50;99.90
5429;DHT22;2737;52.386;9.980;2022-10-31T13:29:38;16.50;99.90
5429;DHT22;2737;52.386;9.980;2022-10-31T13:32:07;16.50;99.90
5429;DHT22;2737;52.386;9.980;2022-10-31T13:34:37;16.50;99.90
5429;DHT22;2737;52.386;9.980;2022-10-31T13:37:13;16.50;99.90
5429;DHT22;2737;52.386;9.980;2022-10-31T13:40:05;16.50;99.90
5429;DHT22;2737;52.386;9.980;2022-10-31T13:42:45;16.50;99.90
5429;DHT22;2737;52.386;9.980;2022-10-31T13:45:17;16.50;99.90
5429;DHT22;2737;52.386;9.980;2022-10-31T13:47:56;16.40;99.90
5429;DHT22;2737;52.386;9.980;2022-10-31T13:50:25;16.30;99.90
5429;DHT22;2737;52.386;9.980;2022-10-31T13:53:02;16.30;99.90
5429;DHT22;2737;52.386;9.980;2022-10-31T13:55:39;16.30;99.90
5429;DHT22;2737;52.386;9.980;2022-10-31T13:58:22;16.20;99.90
5429;DHT22;2737;52.386;9.980;2022-10-31T14:01:04;16.20;99.90
5429;DHT22;2737;52.386;9.980;2022-10-31T14:03:38;16.10;99.90
5429;DHT22;2737;52.386;9.980;2022-10-31T14:06:06;16.00;99.90
5429;DHT22;2737;52.386;9.980;2022-10-31T14:08:37;16.00;99.90
5429;DHT22;2737;52.386;9.980;2022-10-31T14:11:08;15.90;99.90
5429;DHT22;2737;52.386;9.980;2022-10-31T14:13:41;15.90;99.90
5429;DHT22;2737;52.386;9.980;2022-10-31T14:16:18;15.90;99.90
5429;DHT22;2737;52.386;9.980;2022-10-31T14:18:49;15.80;99.90
5429;DHT22;2737;52.386;9.980;2022-10-31T14:21:27;15.80;99.90
5429;DHT22;2737;52.386;9.980;2022-10-31T14:23:55;15.80;99.90
5429;DHT22;2737;52.386;9.980;2022-10-31T14:26:35;15.70;99.90
5429;DHT22;2737;52.386;9.980;2022-10-31T14:29:22;15.70;99.90
5429;DHT22;2737;52.386;9.980;2022-10-31T14:32:01;15.60;99.90
5429;DHT22;2737;52.386;9.980;2022-10-31T14:34:33;15.60;99.90
5429;DHT22;2737;52.386;9.980;2022-10-31T14:37:27;15.50;99.90
5429;DHT22;2737;52.386;9.980;2022-10-31T14:40:06;15.50;99.90
5429;DHT22;2737;52.386;9.980;2022-10-31T14:42:58;15.40;99.90
5429;DHT22;2737;52.386;9.980;2022-10-31T14:45:34;15.40;99.90
5429;DHT22;2737;52.386;9.980;2022-10-31T14:48:17;15.30;99.90
5429;DHT22;2737;52.386;9.980;2022-10-31T14:50:49;15.30;99.90
5429;DHT22;2737;52.386;9.980;2022-10-31T14:53:20;15.20;99.90
5429;DHT22;2737;52.386;9.980;2022-10-31T14:55:52;15.20;99.90
5429;DHT22;2737;52.386;9.980;2022-10-31T14:58:24;15.20;99.90
5429;DHT22;2737;52.386;9.980;2022-10-31T15:00:55;15.10;99.90
5429;DHT22;2737;52.386;9.980;2022-10-31T15:03:27;15.10;99.90
5429;DHT22;2737;52.386;9.980;2022-10-31T15:05:58;15.10;99.90
5429;DHT22;2737;52.386;9.980;2022-10-31T15:08:33;15.10;99.90
5429;DHT22;2737;52.386;9.980;2022-10-31T15:11:08;15.00;99.90
5429;DHT22;2737;52.386;9.980;2022-10-31T15:13:43;15.00;99.90
5429;DHT22;2737;52.386;9.980;2022-10-31T15:16:12;14.90;99.90
5429;DHT22;2737;52.386;9.980;2022-10-31T15:18:52;14.90;99.90
5429;DHT22;2737;52.386;9.980;2022-10-31T15:21:21;14.90;99.90
5429;DHT22;2737;52.386;9.980;2022-10-31T15:23:53;14.90;99.90
5429;DHT22;2737;52.386;9.980;2022-10-31T15:26:23;14.80;99.90
5429;DHT22;2737;52.386;9.980;2022-10-31T15:29:01;14.80;99.90
5429;DHT22;2737;52.386;9.980;2022-10-31T15:31:29;14.80;99.90
5429;DHT22;2737;52.386;9.980;2022-10-31T15:34:00;14.70;99.90
5429;DHT22;2737;52.386;9.980;2022-10-31T15:36:29;14.70;99.90
5429;DHT22;2737;52.386;9.980;2022-10-31T15:38:58;14.70;99.90
5429;DHT22;2737;52.386;9.980;2022-10-31T15:41:31;14.70;99.90
5429;DHT22;2737;52.386;9.980;2022-10-31T15:44:04;14.70;99.90
5429;DHT22;2737;52.386;9.980;2022-10-31T15:46:34;14.60;99.90
5429;DHT22;2737;52.386;9.980;2022-10-31T15:49:01;14.60;99.90
5429;DHT22;2737;52.386;9.980;2022-10-31T15:51:31;14.60;99.90
5429;DHT22;2737;52.386;9.980;2022-10-31T15:53:59;14.60;99.90
5429;DHT22;2737;52.386;9.980;2022-10-31T15:56:28;14.60;99.90
5429;DHT22;2737;52.386;9.980;2022-10-31T15:58:58;14.50;99.90
5429;DHT22;2737;52.386;9.980;2022-10-31T16:01:28;14.50;99.90
5429;DHT22;2737;52.386;9.980;2022-10-31T16:04:04;14.50;99.90
5429;DHT22;2737;52.386;9.980;2022-10-31T16:06:33;14.40;99.90
5429;DHT22;2737;52.386;9.980;2022-10-31T16:09:00;14.40;99.90
5429;DHT22;2737;52.386;9.980;2022-10-31T16:11:34;14.40;99.90
5429;DHT22;2737;52.386;9.980;2022-10-31T16:14:05;14.40;99.90
5429;DHT22;2737;52.386;9.980;2022-10-31T16:16:43;14.40;99.90
5429;DHT22;2737;52.386;9.980;2022-10-31T16:19:17;14.40;99.90
5429;DHT22;2737;52.386;9.980;2022-10-31T16:21:47;14.40;99.90
5429;DHT22;2737;52.386;9.980;2022-10-31T16:24:17;14.40;99.90
5429;DHT22;2737;52.386;9.980;2022-10-31T16:26:49;14.40;99.90
5429;DHT22;2737;52.386;9.980;2022-10-31T16:29:28;14.40;99.90
5429;DHT22;2737;52.386;9.980;2022-10-31T16:32:00;14.30;99.90
5429;DHT22;2737;52.386;9.980;2022-10-31T16:34:27;14.30;99.90
5429;DHT22;2737;52.386;9.980;2022-10-31T16:36:54;14.30;99.90
5429;DHT22;2737;52.386;9.980;2022-10-31T16:39:21;14.40;99.90